Time;durP1;ratioP1;P1;durP2;ratioP2;P2;SDS_P1;SDS_P2;PMS_P1;PMS_P2;Temp;Humidity;BMP_temperature;BMP_pressure;BME280_temperature;BME280_humidity;BME280_pressure;Samples;Min_cycle;Max_cycle;Signal;HPM_P1;HPM_P2
2022/05/25 00:00:40;;;;;;;10.73;2.83;;;;;;;11.40;85.42;101100.47;4969892;28;20039;-76
2022/05/25 00:03:05;;;;;;;10.73;3.00;;;;;;;11.38;85.43;101101.66;4973713;28;20376;-76
2022/05/25 00:05:31;;;;;;;6.13;3.13;;;;;;;11.39;85.88;101108.72;4974353;28;20027;-76
2022/05/25 00:07:57;;;;;;;11.93;3.00;;;;;;;11.35;85.48;101100.16;4973590;28;20027;-76
2022/05/25 00:10:23;;;;;;;9.48;3.47;;;;;;;11.33;85.43;101104.06;4974683;28;20041;-76
2022/05/25 00:12:48;;;;;;;10.52;3.50;;;;;;;11.32;85.87;101103.25;4974187;28;20027;-76
2022/05/25 00:15:13;;;;;;;9.20;3.08;;;;;;;11.32;85.85;101105.94;4973785;28;20027;-76
2022/05/25 00:17:39;;;;;;;7.78;3.70;;;;;;;11.31;85.66;101104.22;4940969;28;20066;-77
2022/05/25 00:20:05;;;;;;;9.02;2.60;;;;;;;11.32;85.80;101099.69;4977662;28;20082;-77
2022/05/25 00:22:46;;;;;;;16.52;3.35;;;;;;;11.32;85.59;101102.38;4977640;28;20123;-76
2022/05/25 00:25:24;;;;;;;9.13;2.65;;;;;;;11.31;85.75;101106.94;4963603;28;20031;-77
2022/05/25 00:27:49;;;;;;;11.13;2.53;;;;;;;11.32;85.94;101111.31;4981622;28;20034;-80
2022/05/25 00:30:16;;;;;;;9.95;2.30;;;;;;;11.32;85.84;101108.63;4982583;28;20038;-78
2022/05/25 00:32:42;;;;;;;11.80;2.33;;;;;;;11.34;86.06;101111.13;4982895;28;20054;-79
2022/05/25 00:35:12;;;;;;;15.57;2.47;;;;;;;11.34;86.07;101111.94;4960811;28;20070;-76
2022/05/25 00:37:39;;;;;;;7.32;2.00;;;;;;;11.35;86.25;101110.13;4958884;28;20058;-77
2022/05/25 00:40:05;;;;;;;4.82;2.10;;;;;;;11.33;86.68;101110.28;4957773;28;20031;-77
2022/05/25 00:42:30;;;;;;;5.32;2.13;;;;;;;11.34;86.83;101105.72;4956271;28;20515;-79
2022/05/25 00:44:56;;;;;;;13.98;2.95;;;;;;;11.35;86.76;101107.44;4957718;29;20077;-78
2022/05/25 00:47:23;;;;;;;8.27;2.75;;;;;;;11.33;86.94;101106.75;4956423;29;20063;-77
2022/05/25 00:49:49;;;;;;;7.38;2.38;;;;;;;11.36;87.11;101114.47;4954363;28;20035;-78
2022/05/25 00:52:15;;;;;;;8.32;2.70;;;;;;;11.34;87.22;101114.66;4953217;29;20046;-77
2022/05/25 00:54:47;;;;;;;13.10;2.35;;;;;;;11.35;87.40;101120.91;4953767;29;20065;-77
2022/05/25 00:57:20;;;;;;;5.30;2.22;;;;;;;11.34;87.42;101121.91;4953805;28;20038;-77
2022/05/25 01:00:09;;;;;;;8.45;2.22;;;;;;;11.32;87.66;101122.09;4952573;29;20031;-77
2022/05/25 01:02:58;;;;;;;11.93;2.13;;;;;;;11.34;87.75;101124.59;4953790;29;20139;-77
2022/05/25 01:05:30;;;;;;;15.73;4.00;;;;;;;11.32;87.73;101118.53;4956561;29;20039;-78
2022/05/25 01:08:29;;;;;;;15.10;2.75;;;;;;;11.30;87.94;101115.22;4957591;28;20030;-78
2022/05/25 01:11:30;;;;;;;8.63;2.20;;;;;;;11.29;88.29;101118.91;4954569;29;20074;-77
2022/05/25 01:14:01;;;;;;;10.52;2.17;;;;;;;11.26;88.46;101121.97;4952878;29;20476;-78
2022/05/25 01:16:49;;;;;;;7.50;2.30;;;;;;;11.25;88.48;101128.38;4954511;29;20036;-78
2022/05/25 01:19:20;;;;;;;13.25;2.63;;;;;;;11.21;88.79;101122.50;4956261;29;20034;-78
2022/05/25 01:21:52;;;;;;;11.30;2.40;;;;;;;11.17;89.12;101118.50;4957773;29;20114;-77
2022/05/25 01:24:53;;;;;;;15.57;2.40;;;;;;;11.14;89.18;101121.56;4960077;28;20102;-77
2022/05/25 01:27:37;;;;;;;8.45;2.60;;;;;;;11.13;89.56;101126.06;4956881;29;20043;-79
2022/05/25 01:30:09;;;;;;;10.27;2.67;;;;;;;11.12;89.81;101129.81;4958163;28;20027;-79
2022/05/25 01:33:08;;;;;;;13.10;2.53;;;;;;;11.10;90.47;101137.22;4958302;29;20074;-78
2022/05/25 01:35:52;;;;;;;8.70;2.40;;;;;;;11.08;90.37;101139.25;4961533;29;20403;-79
2022/05/25 01:38:24;;;;;;;10.98;3.10;;;;;;;11.08;90.64;101133.84;4961881;29;20046;-78
2022/05/25 01:40:56;;;;;;;11.35;2.80;;;;;;;11.07;90.69;101137.56;4960970;29;20062;-78
2022/05/25 01:43:32;;;;;;;15.48;2.55;;;;;;;11.06;90.93;101141.28;4962299;29;20058;-78
2022/05/25 01:46:09;;;;;;;10.90;3.00;;;;;;;11.09;91.37;101140.09;4971880;29;20046;-78
2022/05/25 01:48:38;;;;;;;13.77;3.47;;;;;;;11.12;92.01;101150.53;4969312;29;20031;-78
2022/05/25 01:51:10;;;;;;;13.55;3.28;;;;;;;11.13;92.15;101144.09;4968073;29;20094;-79
2022/05/25 01:53:39;;;;;;;14.15;3.50;;;;;;;11.13;92.32;101150.31;4961464;29;20054;-79
2022/05/25 01:56:07;;;;;;;18.30;4.30;;;;;;;11.13;92.62;101152.19;4954170;28;20037;-78
2022/05/25 01:58:36;;;;;;;16.20;4.47;;;;;;;11.11;92.92;101140.75;4955579;29;20023;-79
2022/05/25 02:01:02;;;;;;;19.50;4.38;;;;;;;11.07;92.82;101148.34;4954161;29;20435;-77
2022/05/25 02:06:26;;;;;;;16.52;4.60;;;;;;;11.02;93.03;101156.13;4952986;29;20124;-76
2022/05/25 02:09:10;;;;;;;13.65;4.13;;;;;;;11.02;93.14;101149.91;4952732;28;20566;-76
2022/05/25 02:11:40;;;;;;;17.83;5.07;;;;;;;11.01;93.32;101141.00;4952341;29;20488;-76
2022/05/25 02:14:08;;;;;;;12.75;4.78;;;;;;;10.99;93.15;101141.16;4951370;29;20125;-77
2022/05/25 02:16:40;;;;;;;18.30;4.82;;;;;;;11.00;93.29;101147.38;4952325;29;20537;-77
2022/05/25 02:19:09;;;;;;;15.77;5.07;;;;;;;10.96;93.41;101146.06;4963045;29;20027;-76
2022/05/25 02:21:42;;;;;;;12.63;4.25;;;;;;;10.92;92.85;101144.72;4960568;29;20075;-76
2022/05/25 02:24:30;;;;;;;12.10;4.65;;;;;;;10.87;93.10;101141.72;4951725;29;20027;-77
2022/05/25 02:27:03;;;;;;;18.42;5.05;;;;;;;10.82;93.04;101150.34;4951854;29;20103;-79
2022/05/25 02:29:45;;;;;;;19.33;5.78;;;;;;;10.77;93.64;101150.03;4953589;29;20062;-78
2022/05/25 02:32:16;;;;;;;21.38;5.63;;;;;;;10.74;93.87;101148.53;4955017;29;20035;-76
2022/05/25 02:34:46;;;;;;;14.52;6.30;;;;;;;10.74;94.07;101155.75;5021883;23;20087;-75
2022/05/25 02:37:11;;;;;;;19.88;6.10;;;;;;;10.67;94.13;101152.94;4976650;28;20058;-76
2022/05/25 02:39:36;;;;;;;17.33;5.95;;;;;;;10.65;94.16;101152.28;4975570;28;20054;-76
2022/05/25 02:42:02;;;;;;;23.50;8.07;;;;;;;10.65;94.58;101154.97;4970429;28;20030;-76
2022/05/25 02:44:27;;;;;;;25.17;7.68;;;;;;;10.67;94.62;101150.25;4970617;28;20031;-76
2022/05/25 02:46:53;;;;;;;32.95;8.07;;;;;;;10.65;95.14;101149.56;4957953;28;20030;-76
2022/05/25 02:49:18;;;;;;;24.35;8.23;;;;;;;10.65;95.14;101148.75;4973927;28;20375;-76
2022/05/25 02:51:45;;;;;;;20.67;7.82;;;;;;;10.66;95.05;101158.47;4973856;28;20472;-76
2022/05/25 02:54:10;;;;;;;28.35;8.20;;;;;;;10.66;95.14;101155.78;4974349;28;20034;-76
2022/05/25 02:56:36;;;;;;;22.42;7.80;;;;;;;10.64;94.89;101158.69;4969982;28;20034;-75
2022/05/25 02:59:01;;;;;;;26.90;8.38;;;;;;;10.63;94.79;101156.16;4972530;28;20019;-75
2022/05/25 03:01:27;;;;;;;19.38;7.38;;;;;;;10.64;94.92;101163.22;4974706;28;20085;-75
2022/05/25 03:03:53;;;;;;;21.95;8.70;;;;;;;10.66;94.90;101162.00;4974792;28;20375;-75
2022/05/25 03:06:18;;;;;;;33.25;10.18;;;;;;;10.65;95.07;101163.03;4974465;28;20038;-75
2022/05/25 03:08:44;;;;;;;24.98;9.38;;;;;;;10.64;95.39;101174.81;4973132;28;20042;-75
2022/05/25 03:11:09;;;;;;;28.95;9.82;;;;;;;10.61;95.23;101167.09;4974905;28;20220;-76
2022/05/25 03:13:35;;;;;;;23.98;9.63;;;;;;;10.58;94.83;101171.97;4976399;28;20042;-74
2022/05/25 03:16:02;;;;;;;27.77;9.45;;;;;;;10.58;95.08;101177.34;4975693;28;20066;-75
2022/05/25 03:18:28;;;;;;;25.33;10.18;;;;;;;10.56;95.68;101182.94;4974616;28;20035;-75
2022/05/25 03:20:53;;;;;;;37.30;11.23;;;;;;;10.56;95.60;101185.63;4974991;28;20038;-75
2022/05/25 03:23:18;;;;;;;25.52;10.95;;;;;;;10.52;95.72;101193.19;4974734;28;20026;-75
2022/05/25 03:25:45;;;;;;;26.70;10.23;;;;;;;10.51;95.78;101194.22;4974300;28;20039;-76
2022/05/25 03:28:11;;;;;;;29.25;12.02;;;;;;;10.54;96.06;101191.16;4975214;28;20034;-75
2022/05/25 03:30:36;;;;;;;24.02;11.27;;;;;;;10.61;96.43;101190.47;4974177;28;20037;-75
2022/05/25 03:33:01;;;;;;;23.75;11.23;;;;;;;10.62;96.69;101184.91;4969330;28;20023;-76
2022/05/25 03:35:27;;;;;;;25.98;11.43;;;;;;;10.62;96.91;101193.00;4974040;28;20521;-76
2022/05/25 03:37:52;;;;;;;34.25;11.68;;;;;;;10.65;96.99;101202.56;4980167;28;20046;-75
2022/05/25 03:40:18;;;;;;;35.83;10.52;;;;;;;10.65;96.75;101192.66;4967875;28;20094;-75
2022/05/25 03:42:44;;;;;;;19.10;9.73;;;;;;;10.68;96.87;101200.38;4969460;28;20022;-75
2022/05/25 03:45:10;;;;;;;16.17;9.45;;;;;;;10.68;96.90;101197.69;4966903;28;20057;-75
2022/05/25 03:47:36;;;;;;;19.67;9.15;;;;;;;10.72;96.76;101195.50;4968611;28;20035;-75
2022/05/25 03:50:01;;;;;;;22.60;9.05;;;;;;;10.74;96.84;101185.38;4968119;28;20042;-76
2022/05/25 03:52:28;;;;;;;24.77;9.45;;;;;;;10.82;96.87;101193.44;4983111;28;20037;-75
2022/05/25 03:54:53;;;;;;;23.35;8.55;;;;;;;10.83;96.71;101195.09;4965486;28;20048;-75
2022/05/25 03:57:18;;;;;;;19.25;8.27;;;;;;;10.86;96.71;101193.91;4976452;28;20478;-74
2022/05/25 03:59:45;;;;;;;24.80;8.77;;;;;;;10.90;96.55;101200.59;4975197;28;20015;-75
2022/05/25 04:02:11;;;;;;;26.33;9.00;;;;;;;10.91;96.42;101203.13;4960141;28;20141;-76
2022/05/25 04:04:37;;;;;;;26.05;9.25;;;;;;;10.97;96.58;101209.69;4985721;28;20038;-76
2022/05/25 04:07:02;;;;;;;16.80;9.27;;;;;;;11.03;96.49;101208.97;4975515;28;20026;-77
2022/05/25 04:09:28;;;;;;;27.63;10.43;;;;;;;11.07;96.33;101204.09;4987782;28;20035;-76
2022/05/25 04:11:53;;;;;;;26.35;11.10;;;;;;;11.08;96.49;101203.88;4970453;29;20023;-76
2022/05/25 04:14:18;;;;;;;22.98;10.55;;;;;;;11.12;96.42;101199.00;4981208;28;20276;-75
2022/05/25 04:16:44;;;;;;;21.38;10.45;;;;;;;11.14;96.26;101197.81;4978331;28;20125;-75
2022/05/25 04:19:10;;;;;;;31.77;12.52;;;;;;;11.17;96.48;101197.47;4958047;28;20105;-75
2022/05/25 04:21:35;;;;;;;28.80;13.05;;;;;;;11.25;96.75;101199.28;4974552;28;20039;-75
2022/05/25 04:24:01;;;;;;;34.90;15.05;;;;;;;11.25;97.18;101193.88;4945704;28;20423;-76
2022/05/25 04:26:28;;;;;;;34.03;15.07;;;;;;;11.29;97.44;101199.75;4955952;28;20030;-76
2022/05/25 04:28:53;;;;;;;34.65;14.68;;;;;;;11.33;97.31;101195.69;4974146;28;20030;-78
2022/05/25 04:31:19;;;;;;;43.50;16.95;;;;;;;11.32;97.21;101202.94;4957955;28;20109;-76
2022/05/25 04:33:44;;;;;;;37.17;15.55;;;;;;;11.35;97.60;101204.44;4972466;28;20070;-77
2022/05/25 04:36:09;;;;;;;33.33;15.80;;;;;;;11.41;97.61;101199.16;4966808;28;20471;-76
2022/05/25 04:38:36;;;;;;;31.25;15.57;;;;;;;11.47;97.50;101202.16;4971238;28;20034;-77
2022/05/25 04:41:01;;;;;;;36.05;16.42;;;;;;;11.48;97.27;101204.69;4977556;28;20062;-75
2022/05/25 04:43:27;;;;;;;40.10;17.02;;;;;;;11.49;97.21;101209.03;4963722;28;20042;-75
2022/05/25 04:45:53;;;;;;;37.97;17.02;;;;;;;11.45;97.13;101198.78;4972460;28;20043;-74
2022/05/25 04:48:21;;;;;;;36.03;16.88;;;;;;;11.47;97.11;101203.00;4979540;28;20049;-75
2022/05/25 04:50:47;;;;;;;35.53;17.38;;;;;;;11.42;97.08;101186.50;4984911;28;20029;-76
2022/05/25 04:53:14;;;;;;;42.22;18.63;;;;;;;11.47;97.25;101186.81;4959686;28;20061;-75
2022/05/25 04:58:35;;;;;;;39.28;18.67;;;;;;;11.50;97.29;101189.16;4977895;28;20065;-76
2022/05/25 05:01:02;;;;;;;36.13;20.00;;;;;;;11.53;97.29;101194.22;4976295;28;20387;-76
2022/05/25 05:03:29;;;;;;;42.10;18.38;;;;;;;11.61;97.35;101191.44;4974718;28;20478;-76
2022/05/25 05:05:55;;;;;;;43.97;19.50;;;;;;;11.65;97.31;101191.91;4958580;28;20035;-76
2022/05/25 05:08:21;;;;;;;44.00;18.67;;;;;;;11.67;97.01;101189.88;4957859;28;20428;-76
2022/05/25 05:10:47;;;;;;;39.90;19.58;;;;;;;11.68;96.83;101196.09;4957613;28;20050;-76
2022/05/25 05:13:12;;;;;;;41.13;18.23;;;;;;;11.74;96.71;101203.47;4958364;28;20034;-76
2022/05/25 05:15:45;;;;;;;47.58;20.48;;;;;;;11.73;96.50;101205.31;4975112;28;20087;-75
2022/05/25 05:18:10;;;;;;;34.97;17.55;;;;;;;11.78;96.39;101204.78;4976552;28;20111;-76
2022/05/25 05:20:35;;;;;;;42.55;18.20;;;;;;;11.80;96.25;101203.59;4975794;28;20058;-77
2022/05/25 05:23:01;;;;;;;41.58;18.48;;;;;;;11.81;96.12;101201.72;4958083;28;20033;-77
2022/05/25 05:25:26;;;;;;;45.78;19.27;;;;;;;11.81;96.16;101207.13;4958564;28;20038;-76
2022/05/25 05:27:52;;;;;;;45.92;19.05;;;;;;;11.79;96.18;101206.47;4979342;28;20031;-76
2022/05/25 05:30:21;;;;;;;40.20;19.48;;;;;;;11.83;96.29;101203.22;4974347;28;20414;-77
2022/05/25 05:32:47;;;;;;;34.10;18.27;;;;;;;11.90;96.34;101205.22;4953279;28;20041;-78
2022/05/25 05:35:12;;;;;;;41.85;17.77;;;;;;;11.95;95.82;101206.34;4965207;29;20051;-77
2022/05/25 05:37:48;;;;;;;43.25;19.30;;;;;;;12.05;95.55;101209.63;4972163;28;20233;-78
2022/05/25 05:40:14;;;;;;;40.83;19.52;;;;;;;12.14;95.21;101210.41;4967221;29;20058;-77
2022/05/25 05:42:43;;;;;;;40.80;18.73;;;;;;;12.15;95.23;101203.97;4966284;29;20071;-76
2022/05/25 05:45:12;;;;;;;39.55;18.85;;;;;;;12.28;94.99;101219.53;4970970;29;20042;-77
2022/05/25 05:48:06;;;;;;;47.47;21.33;;;;;;;12.22;94.45;101223.00;4968862;29;20061;-77
2022/05/25 05:50:33;;;;;;;40.28;21.02;;;;;;;12.25;94.51;101218.06;4963877;28;20051;-77
2022/05/25 05:52:58;;;;;;;45.15;20.73;;;;;;;12.29;94.25;101232.84;4967834;29;20039;-77
2022/05/25 05:55:24;;;;;;;40.38;20.95;;;;;;;12.40;94.06;101215.38;4969838;28;20034;-76
2022/05/25 05:57:49;;;;;;;39.28;20.15;;;;;;;12.46;93.53;101236.22;4967353;29;20031;-77
2022/05/25 06:00:16;;;;;;;39.03;19.42;;;;;;;12.42;92.95;101232.22;4963411;29;20027;-75
2022/05/25 06:02:42;;;;;;;43.58;21.02;;;;;;;12.40;92.29;101236.97;4960991;28;20028;-77
2022/05/25 06:05:09;;;;;;;40.28;21.65;;;;;;;12.29;92.16;101246.34;4962599;29;20032;-77
2022/05/25 06:07:36;;;;;;;43.53;21.73;;;;;;;12.35;92.42;101249.31;4955289;28;20516;-76
2022/05/25 06:10:02;;;;;;;47.55;22.85;;;;;;;12.45;92.54;101255.28;4953933;28;20027;-78
2022/05/25 06:12:30;;;;;;;44.40;22.60;;;;;;;12.44;91.56;101254.47;4954117;28;20032;-76
2022/05/25 06:14:56;;;;;;;46.22;21.77;;;;;;;12.42;91.31;101248.41;4954503;29;20031;-76
2022/05/25 06:20:05;;;;;;;42.47;22.25;;;;;;;12.58;91.17;101246.56;4958040;29;20054;-76
2022/05/25 06:22:32;;;;;;;43.28;22.92;;;;;;;12.57;90.65;101243.03;4960880;29;20032;-77
2022/05/25 06:25:00;;;;;;;49.33;21.95;;;;;;;12.64;90.65;101243.16;4955747;28;20027;-78
2022/05/25 06:27:26;;;;;;;;;;;;;;;12.72;90.48;101253.84;4954480;28;20035;-78
2022/05/25 06:29:52;;;;;;;45.50;21.05;;;;;;;12.69;90.14;101251.50;4954757;29;19918;-79
2022/05/25 06:32:20;;;;;;;41.88;21.30;;;;;;;12.76;90.20;101255.13;4954857;29;20035;-77
2022/05/25 06:34:47;;;;;;;44.85;22.27;;;;;;;12.84;90.27;101257.75;4953119;28;20647;-75
2022/05/25 06:37:21;;;;;;;48.13;22.33;;;;;;;12.81;89.78;101260.81;4957130;28;20118;-76
2022/05/25 06:39:47;;;;;;;43.67;21.63;;;;;;;12.92;89.97;101256.81;4975630;28;20162;-77
2022/05/25 06:42:12;;;;;;;36.15;19.85;;;;;;;13.07;89.11;101265.75;4969738;28;20117;-76
2022/05/25 06:44:38;;;;;;;35.10;19.95;;;;;;;12.98;88.76;101271.44;4957193;29;20039;-76
2022/05/25 06:47:04;;;;;;;37.17;19.25;;;;;;;13.06;88.82;101265.94;4955775;29;20034;-77
2022/05/25 06:49:29;;;;;;;34.42;18.85;;;;;;;13.05;88.32;101267.78;4956291;29;20143;-78
2022/05/25 06:51:55;;;;;;;37.42;18.30;;;;;;;13.15;88.16;101265.66;4957056;28;20122;-76
2022/05/25 06:54:21;;;;;;;46.30;19.63;;;;;;;13.07;87.75;101275.72;4956537;28;20023;-77
2022/05/25 06:56:46;;;;;;;36.78;17.23;;;;;;;13.02;88.00;101275.44;4961209;28;20518;-76
2022/05/25 06:59:12;;;;;;;32.85;17.80;;;;;;;13.07;87.85;101271.16;4956007;29;20059;-77
2022/05/25 07:01:39;;;;;;;37.55;16.63;;;;;;;13.26;87.06;101269.75;4945923;28;20479;-78
2022/05/25 07:04:05;;;;;;;37.92;18.58;;;;;;;13.28;86.96;101278.53;4921314;29;20067;-79
2022/05/25 07:06:30;;;;;;;38.20;18.55;;;;;;;13.29;86.63;101271.25;4946881;29;20108;-78
2022/05/25 07:08:56;;;;;;;37.47;17.67;;;;;;;13.66;86.53;101264.81;4948921;29;20039;-75
2022/05/25 07:11:23;;;;;;;33.08;15.25;;;;;;;14.78;83.14;101271.41;4947050;29;20032;-78
2022/05/25 07:13:49;;;;;;;29.08;13.80;;;;;;;15.43;76.94;101272.75;4958975;28;20031;-77
2022/05/25 07:16:16;;;;;;;23.88;12.77;;;;;;;15.38;76.16;101275.25;4945108;29;20514;-76
2022/05/25 07:18:43;;;;;;;34.35;12.35;;;;;;;15.68;75.81;101278.44;4966222;28;20523;-77
2022/05/25 07:21:14;;;;;;;30.02;12.55;;;;;;;15.90;74.36;101279.13;4967992;28;20038;-77
2022/05/25 07:23:41;;;;;;;32.55;10.45;;;;;;;15.76;72.99;101288.31;4968594;29;20480;-77
2022/05/25 07:26:07;;;;;;;25.92;10.02;;;;;;;15.48;73.85;101291.97;4970944;29;20055;-77
2022/05/25 07:28:36;;;;;;;26.73;9.85;;;;;;;15.35;74.17;101283.78;4962541;28;20136;-79
2022/05/25 07:31:06;;;;;;;23.90;10.30;;;;;;;15.35;74.63;101286.50;4950101;29;20126;-79
2022/05/25 07:33:33;;;;;;;29.33;9.93;;;;;;;15.32;74.71;101297.72;4955765;28;20105;-79
2022/05/25 07:35:58;;;;;;;26.30;9.65;;;;;;;15.72;72.84;101289.78;4955778;29;20023;-78
2022/05/25 07:38:24;;;;;;;23.50;8.35;;;;;;;15.95;72.25;101292.09;4955990;29;20039;-77
2022/05/25 07:40:50;;;;;;;23.33;7.60;;;;;;;16.64;70.35;101285.41;4956812;29;20074;-78
2022/05/25 07:43:18;;;;;;;17.70;6.85;;;;;;;16.55;69.00;101284.81;4958220;29;20083;-77
2022/05/25 07:45:45;;;;;;;11.65;5.35;;;;;;;16.55;68.28;101283.97;4944515;29;20399;-78
2022/05/25 07:48:12;;;;;;;20.48;4.63;;;;;;;17.00;65.80;101287.69;4968280;29;20082;-80
2022/05/25 07:50:38;;;;;;;13.85;4.60;;;;;;;16.69;65.35;101293.78;4962512;29;20031;-77
2022/05/25 07:53:55;;;;;;;20.73;4.05;;;;;;;16.50;63.97;101290.03;4956109;29;20078;-78
2022/05/25 07:55:50;;;;;;;12.17;3.27;;;;;;;16.18;63.69;101302.56;4956157;29;20050;-79
2022/05/25 07:58:15;;;;;;;14.65;3.47;;;;;;;15.86;63.80;101304.22;4957417;29;20067;-79
2022/05/25 08:00:40;;;;;;;15.20;3.05;;;;;;;16.05;63.64;101297.13;4956280;29;20094;-78
2022/05/25 08:06:00;;;;;;;13.40;2.30;;;;;;;16.40;60.53;101297.75;4925759;29;20095;-79
2022/05/25 08:08:26;;;;;;;16.00;2.17;;;;;;;16.44;59.62;101313.44;4958468;29;20023;-81
2022/05/25 08:10:59;;;;;;;18.40;2.20;;;;;;;16.48;59.50;101304.88;4956845;29;20098;-78
2022/05/25 08:13:25;;;;;;;13.05;1.92;;;;;;;16.55;59.48;101306.53;4954244;29;20023;-78
2022/05/25 08:15:51;;;;;;;10.68;1.90;;;;;;;16.45;57.76;101304.25;4959876;29;20110;-79
2022/05/25 08:18:18;;;;;;;11.63;2.08;;;;;;;16.76;58.45;101310.91;4958302;29;20031;-78
2022/05/25 08:20:43;;;;;;;12.55;1.90;;;;;;;16.75;57.43;101308.44;4961939;29;20046;-77
2022/05/25 08:23:13;;;;;;;10.18;2.10;;;;;;;16.60;58.15;101312.19;4962169;29;20420;-77
2022/05/25 08:25:39;;;;;;;13.10;2.03;;;;;;;16.61;58.01;101316.59;4960263;29;20411;-78
2022/05/25 08:28:05;;;;;;;21.75;2.75;;;;;;;16.60;58.06;101308.63;4961475;29;20033;-77
2022/05/25 08:30:32;;;;;;;12.85;1.88;;;;;;;16.57;58.56;101311.78;4961745;29;20083;-77
2022/05/25 08:32:58;;;;;;;14.00;2.17;;;;;;;16.96;57.97;101310.91;4957351;28;20081;-78
2022/05/25 08:35:24;;;;;;;16.98;2.53;;;;;;;17.26;56.62;101305.78;4963980;28;20050;-78
2022/05/25 08:37:49;;;;;;;12.65;1.73;;;;;;;17.43;53.60;101316.19;4940109;28;20570;-76
2022/05/25 08:40:18;;;;;;;18.13;2.08;;;;;;;17.97;51.63;101306.72;4957543;28;20050;-76
2022/05/25 08:43:21;;;;;;;10.52;1.95;;;;;;;19.10;47.23;101303.03;4958119;28;20027;-78
2022/05/25 08:45:49;;;;;;;16.23;2.13;;;;;;;20.24;44.65;101316.81;4957696;28;20495;-80
2022/05/25 08:48:17;;;;;;;12.65;1.33;;;;;;;20.82;44.03;101302.38;4974771;28;20030;-77
2022/05/25 08:50:42;;;;;;;;;;;;;;;21.04;42.86;101308.09;4957172;28;20395;-80
2022/05/25 08:53:10;;;;;;;13.57;1.92;;;;;;;21.00;41.98;101304.16;4958150;28;19914;-78
2022/05/25 08:55:45;;;;;;;13.38;1.63;;;;;;;20.64;44.31;101324.38;4975277;28;20467;-79
2022/05/25 08:58:12;;;;;;;10.18;1.80;;;;;;;20.77;43.31;101312.38;4956831;28;20238;-79
2022/05/25 09:00:39;;;;;;;16.88;2.17;;;;;;;21.16;43.43;101313.53;4956682;28;20037;-78
2022/05/25 09:03:17;;;;;;;10.52;2.08;;;;;;;20.99;43.40;101320.84;4973283;28;20042;-78
2022/05/25 09:06:04;;;;;;;13.93;2.55;;;;;;;18.51;48.18;101328.94;4975160;28;20220;-77
2022/05/25 09:08:51;;;;;;;18.20;2.28;;;;;;;17.80;52.19;101327.34;4940046;28;20046;-78
2022/05/25 09:11:41;;;;;;;13.30;2.70;;;;;;;18.03;52.21;101333.06;4975063;28;20045;-79
2022/05/25 09:14:15;;;;;;;16.27;2.55;;;;;;;18.91;50.96;101334.91;4951742;28;20042;-80
2022/05/25 09:16:41;;;;;;;14.38;2.03;;;;;;;18.59;48.80;101332.25;4962063;28;20514;-80
2022/05/25 09:19:12;;;;;;;22.65;2.63;;;;;;;18.03;49.76;101346.69;4983347;28;20103;-76
2022/05/25 09:21:59;;;;;;;14.82;1.80;;;;;;;18.33;49.08;101349.66;4958052;28;20063;-78
2022/05/25 09:24:26;;;;;;;18.63;1.93;;;;;;;18.93;48.41;101343.72;4959170;28;20031;-79
2022/05/25 09:26:52;;;;;;;13.02;2.15;;;;;;;19.34;48.19;101339.47;4956845;28;20118;-78
2022/05/25 09:29:19;;;;;;;16.05;1.98;;;;;;;20.01;47.04;101338.63;4955000;28;20114;-78
2022/05/25 09:31:52;;;;;;;22.83;2.37;;;;;;;19.65;44.71;101349.38;4966664;28;20403;-77
2022/05/25 09:34:31;;;;;;;5.45;1.23;;;;;;;19.58;45.83;101342.34;4975003;28;20305;-78
2022/05/25 09:37:06;;;;;;;15.38;1.90;;;;;;;18.98;46.38;101360.22;4959490;28;20026;-76
2022/05/25 09:39:33;;;;;;;13.63;1.90;;;;;;;19.57;46.68;101343.41;4957395;28;20027;-78
2022/05/25 09:42:00;;;;;;;13.55;1.77;;;;;;;19.97;44.46;101351.91;4956767;28;20042;-78
2022/05/25 09:44:26;;;;;;;12.77;1.88;;;;;;;20.17;44.44;101348.91;4956009;28;20042;-78
2022/05/25 09:46:56;;;;;;;9.98;1.35;;;;;;;21.41;42.99;101364.47;4956255;28;20427;-79
2022/05/25 09:49:44;;;;;;;11.73;1.60;;;;;;;22.03;41.24;101367.34;4955585;28;20376;-76
2022/05/25 09:52:43;;;;;;;10.50;1.85;;;;;;;22.14;38.25;101374.69;4972352;28;20031;-77
2022/05/25 09:55:16;;;;;;;27.90;1.65;;;;;;;21.75;38.80;101375.56;4950656;28;20117;-78
2022/05/25 09:58:02;;;;;;;15.60;1.55;;;;;;;20.63;42.09;101376.59;4956976;28;20033;-80
2022/05/25 10:00:37;;;;;;;8.93;1.40;;;;;;;20.28;43.02;101383.63;4956618;28;20022;-78
2022/05/25 10:03:12;;;;;;;17.55;2.00;;;;;;;20.01;44.13;101377.72;4974048;28;20038;-77
2022/05/25 10:06:01;;;;;;;22.73;1.85;;;;;;;19.84;44.77;101382.97;4955158;28;20537;-81
2022/05/25 10:08:26;;;;;;;23.10;1.52;;;;;;;19.34;44.78;101380.41;4958915;28;20093;-78
2022/05/25 10:10:59;;;;;;;21.10;1.83;;;;;;;19.19;46.03;101371.75;4978643;28;20018;-78
2022/05/25 10:13:37;;;;;;;16.73;2.20;;;;;;;19.72;45.11;101358.38;4944663;28;20034;-78
2022/05/25 10:16:20;;;;;;;20.02;2.00;;;;;;;19.53;44.90;101387.53;4978365;28;20027;-79
2022/05/25 10:18:45;;;;;;;7.15;1.20;;;;;;;19.19;45.92;101379.94;4979721;28;20034;-76
2022/05/25 10:21:27;;;;;;;16.92;1.73;;;;;;;18.83;46.18;101368.75;4979078;28;20027;-79
2022/05/25 10:23:53;;;;;;;9.40;1.63;;;;;;;19.03;45.78;101381.38;4960807;28;20035;-77
2022/05/25 10:26:36;;;;;;;14.52;1.65;;;;;;;20.15;44.40;101375.63;4977305;28;20034;-78
2022/05/25 10:29:08;;;;;;;9.30;1.50;;;;;;;20.14;44.68;101380.28;4960305;28;20031;-79
2022/05/25 10:37:18;;;;;;;9.90;1.65;;;;;;;20.25;43.79;101375.91;4980632;28;20061;-78
2022/05/25 10:39:53;;;;;;;14.43;1.77;;;;;;;20.53;42.98;101374.41;4962569;28;20030;-78
2022/05/25 10:42:23;;;;;;;9.07;1.58;;;;;;;20.13;42.82;101388.69;4981221;28;20035;-80
2022/05/25 10:44:57;;;;;;;19.90;1.88;;;;;;;19.59;44.66;101377.63;4987304;28;20054;-77
2022/05/25 10:47:45;;;;;;;22.38;2.72;;;;;;;19.98;45.90;101378.16;4992633;28;20019;-78
2022/05/25 10:50:20;;;;;;;14.63;1.75;;;;;;;20.17;42.54;101368.03;4995747;28;20022;-79
2022/05/25 10:53:01;;;;;;;11.38;1.33;;;;;;;19.34;44.11;101387.78;4977074;28;20039;-78
2022/05/25 10:55:32;;;;;;;7.03;1.70;;;;;;;19.01;46.02;101367.97;4980353;28;20035;-76
2022/05/25 10:58:07;;;;;;;13.55;1.58;;;;;;;19.43;46.86;101384.53;4964071;28;20050;-78
2022/05/25 11:00:59;;;;;;;7.05;1.80;;;;;;;19.54;44.83;101366.53;4976433;28;20452;-81
2022/05/25 11:03:48;;;;;;;8.32;1.15;;;;;;;19.46;44.96;101375.88;4947982;28;20027;-78
2022/05/25 11:06:28;;;;;;;8.35;1.35;;;;;;;20.05;44.61;101364.44;4979883;28;20027;-81
2022/05/25 11:09:05;;;;;;;13.90;1.42;;;;;;;19.70;43.54;101376.03;4962569;28;20477;-80
2022/05/25 11:11:43;;;;;;;14.20;2.00;;;;;;;19.51;44.30;101365.09;4975763;28;20062;-77
2022/05/25 11:14:28;;;;;;;11.32;1.50;;;;;;;19.99;43.50;101363.47;4959567;28;20432;-79
2022/05/25 11:17:12;;;;;;;9.90;1.63;;;;;;;19.73;43.29;101356.47;4979435;28;20038;-79
2022/05/25 11:20:08;;;;;;;5.78;1.30;;;;;;;20.54;43.26;101346.03;4978869;28;20066;-78
2022/05/25 11:23:01;;;;;;;13.93;1.63;;;;;;;20.76;42.65;101363.53;4978891;28;20479;-77
2022/05/25 11:25:39;;;;;;;11.50;1.73;;;;;;;20.70;41.85;101367.22;4979008;28;20122;-78
2022/05/25 11:28:13;;;;;;;12.60;1.70;;;;;;;20.54;39.70;101365.19;4951472;28;20034;-76
2022/05/25 11:30:49;;;;;;;11.05;1.20;;;;;;;19.85;39.53;101349.16;4964702;28;20015;-79
2022/05/25 11:33:33;;;;;;;10.98;1.48;;;;;;;20.75;40.40;101350.09;4976792;28;20053;-77
2022/05/25 11:36:14;;;;;;;9.15;1.38;;;;;;;21.17;39.58;101348.06;4960584;28;20027;-79
2022/05/25 11:38:46;;;;;;;12.70;1.17;;;;;;;21.40;37.87;101349.09;4980885;28;20058;-77
2022/05/25 11:41:30;;;;;;;10.93;1.50;;;;;;;21.62;38.37;101341.91;4977248;28;20129;-79
2022/05/25 11:44:05;;;;;;;12.25;1.20;;;;;;;21.14;38.91;101343.03;4961024;28;20456;-78
2022/05/25 11:46:45;;;;;;;9.63;0.98;;;;;;;20.65;38.80;101356.16;4978907;28;20058;-79
2022/05/25 11:49:18;;;;;;;13.60;1.55;;;;;;;20.37;40.07;101354.88;4959470;28;20089;-78